createdAt,value
2023-03-23T15:58:18.287Z,52.30
2023-03-23T16:00:44.955Z,51.93
2023-03-23T16:03:14.393Z,51.59
2023-03-23T16:05:41.379Z,51.40
2023-03-23T16:08:11.030Z,52.19
2023-03-23T16:10:37.686Z,53.44
2023-03-23T16:13:04.342Z,52.86
2023-03-23T16:15:31.149Z,52.30
2023-03-23T16:17:57.902Z,51.75
2023-03-23T16:20:24.893Z,52.07
2023-03-23T16:22:51.880Z,52.78
2023-03-23T16:25:18.784Z,51.77
2023-03-23T16:27:45.521Z,50.46
2023-03-23T16:30:34.031Z,51.07
2023-03-23T16:33:00.763Z,50.40
2023-03-23T16:35:27.475Z,51.82
2023-03-23T16:38:07.974Z,51.65
2023-03-23T16:40:36.564Z,52.49
2023-03-23T16:43:08.757Z,52.76
2023-03-23T16:45:37.378Z,53.41
2023-03-23T16:48:04.145Z,53.36
2023-03-23T16:50:30.879Z,53.26
2023-03-23T16:52:57.581Z,53.20
2023-03-23T16:55:24.270Z,52.57
2023-03-23T16:57:50.954Z,51.89
2023-03-23T17:00:18.178Z,51.78
2023-03-23T17:02:45.009Z,52.21
2023-03-23T17:05:12.239Z,52.22
2023-03-23T17:07:39.606Z,51.95
2023-03-23T17:10:06.795Z,51.16
2023-03-23T17:12:33.554Z,51.37
2023-03-23T17:15:00.191Z,51.72
2023-03-23T17:17:26.885Z,51.69
2023-03-23T17:19:53.526Z,51.41
2023-03-23T17:22:20.183Z,52.29
2023-03-23T17:24:46.821Z,51.66
2023-03-23T17:27:15.287Z,51.96
2023-03-23T17:29:41.932Z,52.26
2023-03-23T17:32:08.632Z,51.50
2023-03-23T17:34:35.293Z,51.27
2023-03-23T17:37:02.024Z,50.94
2023-03-23T17:39:30.077Z,50.43
2023-03-23T17:41:56.710Z,50.74
2023-03-23T17:44:23.356Z,51.04
2023-03-23T17:46:50.095Z,51.25
2023-03-23T17:49:16.783Z,51.56
2023-03-23T17:51:44.541Z,52.14
2023-03-23T17:54:11.349Z,52.80
2023-03-23T17:56:38.096Z,53.09
2023-03-23T17:59:04.754Z,52.83
2023-03-23T18:01:31.461Z,52.46
2023-03-23T18:03:58.189Z,52.44
2023-03-23T18:06:24.844Z,52.05
2023-03-23T18:08:52.410Z,51.83
2023-03-23T18:11:19.183Z,51.81
2023-03-23T18:13:45.840Z,52.04
2023-03-23T18:16:12.487Z,51.08
2023-03-23T18:18:39.179Z,51.02
2023-03-23T18:21:08.262Z,50.77
2023-03-23T18:23:39.095Z,51.66
2023-03-23T18:26:11.369Z,50.82
2023-03-23T18:28:38.036Z,50.68
2023-03-23T18:31:06.507Z,51.02
2023-03-23T18:33:33.394Z,51.04
2023-03-23T18:36:00.737Z,51.06
2023-03-23T18:38:28.421Z,51.56
2023-03-23T18:40:55.125Z,50.64
2023-03-23T18:43:21.847Z,50.72
2023-03-23T18:45:52.854Z,50.31
2023-03-23T18:48:19.506Z,49.65
2023-03-23T18:50:47.633Z,50.54
2023-03-23T18:53:14.270Z,49.87
2023-03-23T18:55:41.030Z,49.27
2023-03-23T18:58:07.670Z,49.09
2023-03-23T19:00:34.314Z,49.74
2023-03-23T19:03:01.067Z,49.32
2023-03-23T19:05:27.719Z,49.72
2023-03-23T19:07:54.352Z,49.16
2023-03-23T19:10:21.300Z,48.43
2023-03-23T19:12:48.744Z,48.88
2023-03-23T19:15:15.501Z,48.66
2023-03-23T19:17:42.711Z,48.34
2023-03-23T19:22:38.746Z,47.08
2023-03-23T19:25:06.510Z,48.48
2023-03-23T19:27:33.405Z,47.59
2023-03-23T19:30:00.177Z,47.62
2023-03-23T19:32:26.903Z,48.88
2023-03-23T19:34:53.555Z,49.44
2023-03-23T19:37:23.302Z,49.31
2023-03-23T19:39:50.060Z,49.49
2023-03-23T19:42:16.787Z,49.23
2023-03-23T19:44:43.487Z,49.57
2023-03-23T19:47:10.667Z,48.80
2023-03-23T19:49:37.367Z,48.68
2023-03-23T19:52:06.498Z,48.92
2023-03-23T19:54:37.199Z,48.07
2023-03-23T19:57:04.098Z,47.76
2023-03-23T19:59:30.883Z,48.08
2023-03-23T20:01:57.965Z,49.17
2023-03-23T20:04:25.557Z,47.21
2023-03-23T20:06:52.422Z,48.54
2023-03-23T20:09:19.082Z,47.46
2023-03-23T20:11:45.737Z,47.35
2023-03-23T20:14:12.391Z,47.43
2023-03-23T20:16:39.046Z,47.46
2023-03-23T20:19:05.983Z,46.70
2023-03-23T20:21:33.074Z,47.20
2023-03-23T20:24:00.370Z,47.65
2023-03-23T20:26:45.073Z,48.40
2023-03-23T20:29:11.743Z,48.01
2023-03-23T20:31:39.818Z,48.06
2023-03-23T20:34:10.964Z,48.12
2023-03-23T20:36:42.063Z,46.90
2023-03-23T20:39:17.075Z,47.03
2023-03-23T20:41:43.861Z,47.19
2023-03-23T20:44:11.510Z,48.20
2023-03-23T20:46:38.184Z,48.17
2023-03-23T20:49:04.942Z,49.20
2023-03-23T20:51:31.812Z,49.43
2023-03-23T20:53:58.544Z,47.95
2023-03-23T20:56:25.256Z,47.59
2023-03-23T20:58:51.956Z,47.88
2023-03-23T21:01:18.641Z,48.51
2023-03-23T21:03:45.335Z,50.34
2023-03-23T21:06:12.099Z,51.01
2023-03-23T21:08:39.933Z,51.85
2023-03-23T21:11:08.498Z,51.94
2023-03-23T21:13:35.182Z,53.55
2023-03-23T21:16:02.094Z,53.67
2023-03-23T21:18:29.101Z,53.92
2023-03-23T21:20:56.087Z,54.28
2023-03-23T21:23:23.238Z,54.62
2023-03-23T21:25:50.003Z,54.53
2023-03-23T21:28:16.685Z,54.51
2023-03-23T21:30:43.516Z,54.71
2023-03-23T21:33:10.365Z,54.48
2023-03-23T21:35:37.043Z,54.64
2023-03-23T21:38:03.703Z,53.70
2023-03-23T21:40:30.688Z,54.40
2023-03-23T21:42:57.322Z,55.64
2023-03-23T21:45:23.958Z,55.38
2023-03-23T21:47:50.704Z,55.55
2023-03-23T21:50:17.427Z,55.41
2023-03-23T21:52:44.137Z,54.30
2023-03-23T21:55:12.087Z,53.32
2023-03-23T21:57:39.606Z,52.45
2023-03-23T22:00:07.202Z,51.88
2023-03-23T22:02:33.848Z,52.17
2023-03-23T22:05:00.547Z,50.70
2023-03-23T22:07:27.924Z,50.41
2023-03-23T22:09:55.810Z,50.71
2023-03-23T22:12:22.579Z,49.72
2023-03-23T22:14:49.250Z,49.29
2023-03-23T22:17:15.933Z,49.29
2023-03-23T22:19:42.585Z,48.87
2023-03-23T22:22:09.283Z,48.75
2023-03-23T22:24:35.930Z,48.17
2023-03-23T22:27:02.568Z,48.27
2023-03-23T22:29:29.215Z,47.52
2023-03-23T22:31:55.866Z,46.94
2023-03-23T22:34:22.511Z,47.28
2023-03-23T22:36:49.150Z,46.28
2023-03-23T22:39:15.827Z,46.40
2023-03-23T22:41:42.491Z,47.68
2023-03-23T22:44:16.299Z,48.46
2023-03-23T22:46:43.010Z,49.28
2023-03-23T22:49:09.837Z,50.49
2023-03-23T22:51:36.716Z,50.98
2023-03-23T22:54:04.455Z,51.73
2023-03-23T22:56:31.164Z,52.60
2023-03-23T22:58:57.810Z,52.85
2023-03-23T23:01:24.483Z,52.62
2023-03-23T23:03:51.246Z,53.57
2023-03-23T23:06:18.219Z,53.54
2023-03-23T23:08:45.074Z,53.53
2023-03-23T23:11:16.585Z,52.49
2023-03-23T23:13:43.218Z,52.95
2023-03-23T23:16:10.451Z,52.76
2023-03-23T23:18:37.205Z,51.98
2023-03-23T23:21:08.929Z,52.43
2023-03-23T23:23:35.610Z,51.45
2023-03-23T23:26:02.687Z,50.37
2023-03-23T23:28:29.347Z,51.22
2023-03-23T23:30:56.076Z,52.65
2023-03-23T23:33:22.815Z,53.16
2023-03-23T23:35:49.623Z,53.54
2023-03-23T23:38:16.427Z,53.81
2023-03-23T23:40:43.691Z,53.50
2023-03-23T23:43:14.583Z,54.13
2023-03-23T23:45:41.398Z,57.13
2023-03-23T23:48:08.133Z,56.37
2023-03-23T23:50:34.801Z,57.42
2023-03-23T23:53:01.459Z,57.87
2023-03-23T23:55:28.103Z,58.71
2023-03-23T23:57:54.979Z,59.63
